ěÝzenÝ letovÚho provozu ╚eskÚ republiky
Letiste: LKLN Aktualizace: 21.09.2021 05:21:28  UTC
 METAR LKLN 21.09. 05:30 ...
METAR LKLN 210530Z AUTO 24002KT 9999 OVC059 08/06 Q1026=